Here is the Quick Look data you requested

The Data originates at the National Weather Service, and is made available here by the UAlbany Department of Atmospheric and Environmental Sciences

Surface Observations

KBDL 230151Z 33013G21KT 10SM CLR M06/M22 A3034 RMK AO2 SLP276 T10561222=
KBDR 230152Z 33016G22KT 10SM CLR M04/M22 A3038 RMK AO2 SLP286 T10391217=
KDXR 230153Z AUTO 30008KT 10SM CLR M06/M20 A3037 RMK AO2 SLP288 T10611200=
KGON 230156Z 33014G25KT 10SM CLR M04/M22 A3030 RMK AO2 PK WND 31031/0128 SLP261
 T10391222=
KHFD 230153Z 31011KT 10SM CLR M05/M19 A3036 RMK AO2 SLP280 T10501194=
KHVN 230153Z 32012G24KT 10SM CLR M05/M20 A3037 RMK AO2 SLP282 T10501200=
KIJD 230152Z AUTO 33014G21KT 10SM CLR M04/M23 A3032 RMK AO2 SLP269 T10441228=
KMMK 230153Z AUTO 33009G25KT 10SM CLR M05/M21 A3036 RMK AO2 SLP283 T10501206
 TSNO=
KOXC 230155Z AUTO 32009G19KT 10SM CLR M07/M21 A3033 RMK AO1=